EDT,Max TemperatureF,Mean TemperatureF,Min TemperatureF,Max Dew PointF,MeanDew PointF,Min DewpointF,Max Humidity, Mean Humidity, Min Humidity, Max Sea Level PressureIn, Mean Sea Level PressureIn, Min Sea Level PressureIn, Max VisibilityMiles, Mean VisibilityMiles, Min VisibilityMiles, Max Wind SpeedMPH, Mean Wind SpeedMPH, Max Gust SpeedMPH,PrecipitationIn, CloudCover, Events, WindDirDegrees
2012-3-1,42,38,33,40,37,30,100,92,85,29.91,29.73,29.63,10,4,1,21,11,33,0.46,8,Rain-Snow,58
2012-3-2,37,34,30,30,28,26,87,76,65,30.14,30.05,29.93,10,10,7,17,11,25,0.00,7,Snow,34
2012-3-3,51,44,37,50,42,30,100,90,56,29.94,29.57,29.38,10,5,0,22,13,33,0.11,7,Fog-Rain,184
2012-3-4,44,36,28,36,30,21,89,76,53,29.68,29.61,29.53,10,10,9,9,3,,0.00,5,Rain,230
2012-3-5,41,36,30,20,13,3,64,44,22,30.25,29.95,29.66,10,10,10,18,10,29,0.00,1,,286
2012-3-6,35,29,23,18,12,9,77,53,34,30.61,30.49,30.25,10,10,10,17,11,26,0.00,1,,333
2012-3-7,50,36,23,45,36,18,87,76,66,30.59,30.44,30.30,10,10,10,26,11,36,0.00,0,,212
2012-3-8,57,52,48,46,45,42,87,75,59,30.31,30.11,29.85,10,10,9,32,21,43,0.00,1,,215
2012-3-9,55,44,33,50,32,22,87,66,42,30.12,29.97,29.75,10,9,4,33,16,46,0.03,6,Rain,284
2012-3-10,39,31,21,30,23,14,93,72,51,30.54,30.34,30.13,10,7,0,25,11,36,0.04,4,Fog-Snow,337
2012-3-11,48,34,21,37,29,17,88,69,47,30.53,30.40,30.28,10,10,10,30,11,37,0.00,0,,226
2012-3-12,64,52,39,42,37,32,83,61,30,30.28,30.21,30.14,10,10,10,17,10,,0.00,0,,230
2012-3-13,54,50,46,49,46,43,100,90,82,30.13,30.01,29.94,10,6,0,18,10,25,0.00,7,Fog-Rain,211
2012-3-14,48,44,42,46,43,39,100,93,81,30.23,30.05,29.93,10,4,0,17,9,23,0.00,8,Fog,347
2012-3-15,44,39,34,39,34,30,93,78,65,30.36,30.32,30.23,10,10,9,16,10,22,0.01,6,Rain,15
2012-3-16,43,36,30,41,35,28,100,89,76,30.33,30.19,30.11,10,8,0,8,2,,0.04,7,Fog-Rain,155
2012-3-17,51,42,32,42,38,29,100,86,61,30.36,30.26,30.15,10,7,0,12,3,16,0.00,6,Fog,1
2012-3-18,57,44,32,45,41,28,96,85,51,30.35,30.25,30.16,10,8,1,23,9,32,0.00,3,Fog,218
2012-3-19,70,56,44,53,47,42,96,79,51,30.25,30.18,30.15,10,8,2,12,8,,0.00,1,,220
2012-3-20,66,54,42,56,49,40,100,90,64,30.32,30.29,30.25,10,6,0,13,3,,0.00,2,Fog,217
2012-3-21,72,60,50,59,54,50,100,92,61,30.35,30.30,30.26,10,4,0,20,7,25,0.00,4,Fog,217
2012-3-22,68,58,51,56,54,51,100,89,63,30.26,30.15,29.99,10,5,0,17,8,25,0.00,4,Fog,225
2012-3-23,68,60,53,54,43,34,87,58,30,30.11,30.03,29.99,10,10,10,14,8,22,0.00,2,,326
2012-3-24,52,48,44,35,32,27,68,56,46,30.15,30.09,30.05,10,10,10,8,4,,0.00,3,,108
2012-3-25,46,44,42,43,39,33,100,84,65,30.04,29.82,29.66,10,6,2,13,7,20,0.02,8,Rain,59
2012-3-26,52,41,34,42,30,11,100,69,35,29.91,29.69,29.62,10,8,2,25,11,41,0.00,5,,327
2012-3-27,43,36,26,18,10,4,69,38,21,30.16,30.06,29.91,10,10,10,23,16,38,0.00,1,,338
2012-3-28,48,37,26,45,36,17,100,79,38,30.13,29.77,29.54,10,9,4,16,5,24,0.19,6,Rain,219
2012-3-29,46,42,39,45,38,27,100,85,57,29.88,29.65,29.48,10,9,3,22,8,33,0.01,8,Rain,347
2012-3-30,46,41,36,31,23,12,67,51,27,30.03,29.97,29.90,10,10,10,20,8,26,0.00,1,,322
2012-3-31,43,36,28,36,34,27,93,86,62,30.04,29.94,29.87,10,8,3,12,4,,0.16,6,Rain,116